Time;durP1;ratioP1;P1;durP2;ratioP2;P2;SDS_P1;SDS_P2;PMS_P1;PMS_P2;Temp;Humidity;BMP_temperature;BMP_pressure;BME280_temperature;BME280_humidity;BME280_pressure;Samples;Min_cycle;Max_cycle;Signal;HPM_P1;HPM_P2
2021/12/21 00:01:22;;;;;;;72.15;35.00;;;;;;;0.51;100.00;101160.72;6256023;22;20015;-85
2021/12/21 00:03:48;;;;;;;74.97;35.92;;;;;;;0.71;100.00;101162.25;6254878;22;20079;-85
2021/12/21 00:06:14;;;;;;;75.43;36.08;;;;;;;0.73;100.00;101158.63;6255028;22;20019;-89
2021/12/21 00:08:39;;;;;;;76.93;36.42;;;;;;;0.76;100.00;101168.06;6283902;22;20011;-84
2021/12/21 00:11:05;;;;;;;80.97;36.03;;;;;;;0.76;100.00;101165.47;6286586;22;20014;-87
2021/12/21 00:23:50;;;;;;;73.72;34.83;;;;;;;0.85;100.00;101176.22;6224410;22;20015;-84
2021/12/21 00:26:34;;;;;;;73.60;34.72;;;;;;;0.90;100.00;101178.56;6236699;23;19992;-85
2021/12/21 00:29:06;;;;;;;76.72;34.30;;;;;;;0.81;100.00;101174.69;6194924;23;20075;-84
2021/12/21 00:31:36;;;;;;;76.63;35.83;;;;;;;0.71;100.00;101183.09;6240249;23;20016;-85
2021/12/21 00:34:03;;;;;;;77.70;35.47;;;;;;;0.65;100.00;101179.06;6238888;23;20008;-87
2021/12/21 00:36:29;;;;;;;83.60;37.08;;;;;;;0.66;100.00;101179.91;6230119;23;20008;-84
2021/12/21 00:39:06;;;;;;;77.85;35.63;;;;;;;0.57;100.00;101186.47;6229054;23;20069;-86
2021/12/21 00:41:35;;;;;;;71.57;34.53;;;;;;;0.61;100.00;101187.13;6229658;23;20083;-87
2021/12/21 00:44:03;;;;;;;79.18;34.50;;;;;;;0.64;100.00;101190.41;6256581;23;20011;-86
2021/12/21 00:46:30;;;;;;;79.15;36.05;;;;;;;0.72;100.00;101190.03;6230899;23;20038;-86
2021/12/21 00:49:01;;;;;;;75.93;34.95;;;;;;;0.79;100.00;101191.38;6255904;23;20009;-84
2021/12/21 00:51:28;;;;;;;67.78;34.30;;;;;;;0.67;100.00;101197.22;6227205;23;20008;-87
2021/12/21 00:53:55;;;;;;;71.97;34.92;;;;;;;0.58;100.00;101193.38;6246395;23;20343;-87
2021/12/21 00:56:20;;;;;;;71.35;33.53;;;;;;;0.69;100.00;101190.19;6245827;23;20388;-88
2021/12/21 00:58:46;;;;;;;67.13;33.30;;;;;;;0.80;100.00;101193.03;6245998;23;20072;-88
2021/12/21 01:01:12;;;;;;;64.28;32.50;;;;;;;0.76;100.00;101186.31;6245931;23;20008;-87
2021/12/21 01:03:44;;;;;;;63.33;32.20;;;;;;;0.67;100.00;101197.22;6246258;23;20004;-87
2021/12/21 01:06:24;;;;;;;66.20;32.90;;;;;;;0.62;100.00;101191.44;6246167;23;20383;-88
2021/12/21 01:09:10;;;;;;;64.40;31.98;;;;;;;0.62;100.00;101194.03;6245988;23;20031;-88
2021/12/21 01:21:35;;;;;;;62.72;31.30;;;;;;;0.70;100.00;101195.31;6245642;23;20008;-87
2021/12/21 01:29:25;;;;;;;55.72;28.73;;;;;;;0.75;100.00;101210.72;6245442;23;20458;-86
2021/12/21 01:32:12;;;;;;;58.25;30.48;;;;;;;0.66;100.00;101206.00;6245861;23;20016;-86
2021/12/21 01:34:51;;;;;;;62.15;31.80;;;;;;;0.68;100.00;101210.22;6245958;23;20018;-85
2021/12/21 01:42:20;;;;;;;58.85;32.72;;;;;;;0.62;100.00;101209.69;6246057;23;20031;-86
2021/12/21 01:50:26;;;;;;;62.28;31.98;;;;;;;0.57;100.00;101216.91;6247002;23;20146;-84
2021/12/21 01:52:55;;;;;;;62.65;31.50;;;;;;;0.51;100.00;101213.72;6250847;23;20027;-85
2021/12/21 01:55:20;;;;;;;59.17;31.65;;;;;;;0.46;100.00;101213.09;6246882;23;20020;-86
2021/12/21 01:57:46;;;;;;;65.97;33.42;;;;;;;0.45;100.00;101213.19;6247436;23;20435;-87
2021/12/21 02:00:12;;;;;;;61.28;31.67;;;;;;;0.44;100.00;101207.13;6220414;23;20086;-88
2021/12/21 02:02:38;;;;;;;57.03;30.95;;;;;;;0.45;100.00;101197.56;6247028;23;20058;-87
2021/12/21 02:05:04;;;;;;;60.00;31.73;;;;;;;0.42;100.00;101209.00;6247078;23;20012;-88
2021/12/21 02:07:29;;;;;;;63.75;32.33;;;;;;;0.43;100.00;101209.84;6247068;23;20431;-86
2021/12/21 02:09:55;;;;;;;62.60;32.35;;;;;;;0.37;100.00;101210.13;6246988;23;20031;-88
2021/12/21 02:12:21;;;;;;;64.78;34.42;;;;;;;0.34;100.00;101211.16;6247485;23;20013;-87
2021/12/21 02:14:55;;;;;;;62.60;32.90;;;;;;;0.35;100.00;101207.63;6246580;23;20009;-87
2021/12/21 02:20:38;;;;;;;67.80;34.35;;;;;;;0.34;100.00;101213.75;6247132;23;20513;-88
2021/12/21 02:23:01;;;;;;;71.07;35.42;;;;;;;0.33;100.00;101206.84;6244468;23;20482;-86
2021/12/21 02:30:51;;;;;;;67.93;35.15;;;;;;;0.42;100.00;101206.38;6245218;23;20379;-88
2021/12/21 02:33:17;;;;;;;70.45;36.55;;;;;;;0.39;100.00;101196.13;6246856;23;20084;-90
2021/12/21 02:35:42;;;;;;;69.15;34.92;;;;;;;0.47;100.00;101199.16;6219551;23;20061;-86
2021/12/21 02:38:09;;;;;;;64.38;33.70;;;;;;;0.45;100.00;101205.38;6246636;23;20079;-84
2021/12/21 02:40:36;;;;;;;66.97;35.35;;;;;;;0.42;100.00;101203.78;6246809;23;20015;-85
2021/12/21 02:43:03;;;;;;;65.47;34.35;;;;;;;0.43;100.00;101199.41;6246758;23;20087;-87
2021/12/21 02:45:29;;;;;;;62.22;32.47;;;;;;;0.44;100.00;101199.31;6246696;23;20023;-87
2021/12/21 02:47:54;;;;;;;67.63;34.33;;;;;;;0.56;100.00;101202.19;6246329;23;20059;-86
2021/12/21 02:50:20;;;;;;;62.83;33.47;;;;;;;0.57;100.00;101201.25;6246560;23;20008;-89
2021/12/21 02:52:50;;;;;;;64.28;33.33;;;;;;;0.62;100.00;101199.25;6247345;23;20004;-84
2021/12/21 02:55:16;;;;;;;69.53;34.42;;;;;;;0.68;100.00;101204.13;6246609;23;20012;-86
2021/12/21 02:57:42;;;;;;;69.05;35.15;;;;;;;0.64;100.00;101197.41;6246719;23;20008;-88
2021/12/21 03:00:09;;;;;;;68.10;34.58;;;;;;;0.78;100.00;101200.97;6219682;23;20413;-85
2021/12/21 03:02:35;;;;;;;67.95;33.15;;;;;;;0.76;100.00;101201.97;6246072;23;20074;-85
2021/12/21 03:05:01;;;;;;;68.30;33.90;;;;;;;0.76;100.00;101205.41;6246427;23;20012;-84
2021/12/21 03:10:08;;;;;;;72.88;36.13;;;;;;;0.84;100.00;101205.00;6246198;23;20027;-85
2021/12/21 03:13:55;;;;;;;;;;;;;;;0.87;100.00;101205.66;6247642;23;20032;-86
2021/12/21 03:15:21;;;;;;;74.10;34.63;;;;;;;0.93;100.00;101209.69;6219287;23;19916;-87
2021/12/21 03:17:47;;;;;;;75.47;37.15;;;;;;;0.90;100.00;101204.66;6246498;23;20056;-88
2021/12/21 03:20:13;;;;;;;79.50;38.20;;;;;;;0.92;100.00;101208.88;6253303;23;20018;-86
2021/12/21 03:22:39;;;;;;;84.05;38.63;;;;;;;0.91;100.00;101212.41;6246506;23;20004;-86
2021/12/21 03:25:05;;;;;;;86.88;40.40;;;;;;;1.04;100.00;101212.56;6219083;23;20095;-84
2021/12/21 03:27:31;;;;;;;89.88;40.20;;;;;;;1.06;100.00;101205.53;6246426;23;20016;-88
2021/12/21 03:29:57;;;;;;;93.00;40.38;;;;;;;1.07;100.00;101208.94;6194685;23;20085;-87
2021/12/21 03:32:22;;;;;;;88.00;39.85;;;;;;;1.11;100.00;101213.91;6231921;23;20055;-85
2021/12/21 03:34:48;;;;;;;91.57;40.88;;;;;;;1.14;100.00;101211.13;6248719;23;20450;-86
2021/12/21 03:37:14;;;;;;;91.47;41.50;;;;;;;1.15;100.00;101214.59;6246445;23;20336;-89
2021/12/21 03:39:42;;;;;;;95.22;41.60;;;;;;;1.21;100.00;101209.88;6194114;23;20435;-88
2021/12/21 03:42:08;;;;;;;91.65;41.38;;;;;;;1.21;100.00;101214.25;6245872;23;20008;-85
2021/12/21 03:44:34;;;;;;;95.75;42.83;;;;;;;1.25;100.00;101214.00;6219430;23;20493;-87
2021/12/21 03:47:00;;;;;;;103.03;42.45;;;;;;;1.27;100.00;101206.91;6246014;23;20091;-84
2021/12/21 03:52:05;;;;;;;94.35;41.35;;;;;;;1.36;100.00;101214.22;6246249;23;20443;-88
2021/12/21 03:54:30;;;;;;;93.80;42.20;;;;;;;1.41;100.00;101201.75;6219514;23;20439;-87
2021/12/21 03:56:56;;;;;;;101.95;44.53;;;;;;;1.44;100.00;101206.81;6246493;23;20019;-86
2021/12/21 03:59:22;;;;;;;98.75;42.85;;;;;;;1.48;100.00;101203.09;6252518;23;20012;-86
2021/12/21 04:01:49;;;;;;;95.63;43.00;;;;;;;1.52;100.00;101212.41;6246025;23;20395;-87
2021/12/21 04:04:18;;;;;;;94.80;41.80;;;;;;;1.54;100.00;101215.81;6245894;23;20024;-87
2021/12/21 04:06:44;;;;;;;97.28;41.97;;;;;;;1.56;100.00;101211.31;6245658;23;20016;-87
2021/12/21 04:09:09;;;;;;;96.68;43.25;;;;;;;1.64;100.00;101212.66;6246111;23;20471;-86
2021/12/21 04:11:35;;;;;;;88.18;40.58;;;;;;;1.67;100.00;101212.47;6247019;23;20459;-84
2021/12/21 04:14:01;;;;;;;90.25;42.72;;;;;;;1.68;100.00;101215.00;6245862;23;20347;-88
2021/12/21 04:16:27;;;;;;;89.18;40.08;;;;;;;1.73;100.00;101212.13;6245557;23;20000;-83
2021/12/21 04:18:53;;;;;;;85.88;39.67;;;;;;;1.73;100.00;101207.72;6245530;23;20086;-83
2021/12/21 04:21:18;;;;;;;98.63;43.60;;;;;;;1.82;100.00;101206.38;6245781;23;20042;-86
2021/12/21 04:23:44;;;;;;;93.28;41.40;;;;;;;1.90;100.00;101217.19;6218343;23;20016;-83
2021/12/21 04:26:11;;;;;;;86.28;40.67;;;;;;;1.94;100.00;101213.50;6245854;23;20450;-84
2021/12/21 04:28:37;;;;;;;84.82;38.78;;;;;;;1.96;100.00;101219.44;6245561;23;20003;-88
2021/12/21 04:31:04;;;;;;;92.05;41.10;;;;;;;2.09;100.00;101225.63;6245505;23;20339;-86
2021/12/21 04:33:30;;;;;;;89.43;40.33;;;;;;;2.11;100.00;101220.34;6245711;23;20016;-87
2021/12/21 04:35:56;;;;;;;82.38;38.20;;;;;;;2.13;100.00;101221.06;6246081;23;20012;-86
2021/12/21 04:38:26;;;;;;;84.22;38.58;;;;;;;2.18;100.00;101230.34;6219393;23;20099;-84
2021/12/21 04:41:02;;;;;;;81.20;40.42;;;;;;;2.27;100.00;101224.56;6247543;23;20012;-83
2021/12/21 04:43:27;;;;;;;79.22;37.95;;;;;;;2.23;100.00;101223.06;6247476;23;20436;-87
2021/12/21 04:45:53;;;;;;;78.18;38.78;;;;;;;2.34;100.00;101222.41;6245902;23;20015;-86
2021/12/21 04:48:19;;;;;;;84.60;39.40;;;;;;;2.42;100.00;101223.63;6245635;23;20423;-83
2021/12/21 04:50:45;;;;;;;78.40;39.72;;;;;;;2.43;100.00;101225.31;6245793;23;20012;-86
2021/12/21 04:53:10;;;;;;;76.75;39.42;;;;;;;2.49;100.00;101222.31;6246266;23;20146;-87
2021/12/21 04:55:36;;;;;;;80.57;38.63;;;;;;;2.64;100.00;101230.16;6245672;23;20004;-83
2021/12/21 04:58:03;;;;;;;81.18;39.55;;;;;;;2.58;100.00;101232.25;6246045;23;20016;-84
2021/12/21 05:00:29;;;;;;;75.93;37.40;;;;;;;2.67;100.00;101237.81;6245844;23;20030;-87
2021/12/21 05:02:55;;;;;;;80.00;37.67;;;;;;;2.58;100.00;101234.00;6245800;23;20019;-88
2021/12/21 05:05:21;;;;;;;77.63;38.35;;;;;;;2.51;100.00;101238.78;6245504;23;20032;-85
2021/12/21 05:07:53;;;;;;;78.78;38.05;;;;;;;2.48;100.00;101232.88;6249216;23;20087;-85
2021/12/21 05:10:19;;;;;;;78.35;38.92;;;;;;;2.38;100.00;101237.84;6254655;23;20101;-88
2021/12/21 05:12:46;;;;;;;82.82;40.28;;;;;;;2.31;100.00;101236.53;6245827;23;20016;-87
2021/12/21 05:15:11;;;;;;;80.30;39.35;;;;;;;2.36;100.00;101234.44;6245552;23;20019;-84
2021/12/21 05:17:37;;;;;;;75.50;38.80;;;;;;;2.28;100.00;101241.09;6218537;23;20016;-85
2021/12/21 05:20:04;;;;;;;82.72;39.13;;;;;;;2.30;100.00;101240.06;6245028;23;20010;-85
2021/12/21 05:22:29;;;;;;;83.70;40.38;;;;;;;2.59;100.00;101231.28;6245455;23;20019;-87
2021/12/21 05:24:56;;;;;;;79.80;39.08;;;;;;;2.63;100.00;101231.09;6246493;23;20008;-88
2021/12/21 05:27:23;;;;;;;88.50;40.70;;;;;;;2.69;100.00;101233.31;6247938;23;20015;-85
2021/12/21 05:29:49;;;;;;;79.47;38.55;;;;;;;2.81;100.00;101229.97;6247269;23;20047;-87
2021/12/21 05:32:14;;;;;;;84.47;39.78;;;;;;;2.93;100.00;101234.44;6220890;23;20019;-85
2021/12/21 05:34:40;;;;;;;82.57;38.88;;;;;;;2.91;100.00;101236.31;6247690;23;20008;-88
2021/12/21 05:37:07;;;;;;;75.38;37.47;;;;;;;2.85;100.00;101232.28;6247640;23;20087;-87
2021/12/21 05:39:44;;;;;;;82.93;38.35;;;;;;;2.86;100.00;101228.75;6248071;23;20079;-85
2021/12/21 05:42:10;;;;;;;85.30;41.35;;;;;;;2.81;100.00;101240.44;6222179;23;20016;-89
2021/12/21 05:44:35;;;;;;;77.72;39.70;;;;;;;2.82;100.00;101237.72;6249815;23;20011;-85
2021/12/21 05:47:01;;;;;;;81.45;39.85;;;;;;;2.82;100.00;101242.09;6248870;23;20019;-87
2021/12/21 05:49:26;;;;;;;82.07;39.85;;;;;;;2.80;100.00;101241.38;6251327;23;20075;-87
2021/12/21 05:51:53;;;;;;;84.13;41.00;;;;;;;2.74;100.00;101244.38;6247180;23;20015;-86
2021/12/21 05:54:21;;;;;;;87.47;40.42;;;;;;;2.80;100.00;101244.84;6249585;23;20332;-86
2021/12/21 05:56:48;;;;;;;80.47;40.38;;;;;;;2.74;100.00;101239.13;6220578;23;20404;-87
2021/12/21 05:59:14;;;;;;;84.18;40.47;;;;;;;2.73;100.00;101242.69;6247664;23;20036;-88
2021/12/21 06:01:39;;;;;;;80.97;39.15;;;;;;;2.64;100.00;101238.03;6247964;23;20443;-86
2021/12/21 06:04:05;;;;;;;83.38;40.15;;;;;;;2.80;100.00;101242.22;6221130;23;20004;-88
2021/12/21 06:06:32;;;;;;;78.38;39.28;;;;;;;2.78;100.00;101245.88;6250188;23;20020;-85
2021/12/21 06:09:02;;;;;;;78.93;38.83;;;;;;;2.84;100.00;101248.09;6248150;23;20005;-87
2021/12/21 06:11:28;;;;;;;81.32;38.25;;;;;;;2.79;100.00;101242.28;6254851;23;20015;-87
2021/12/21 06:27:11;;;;;;;72.45;37.17;;;;;;;2.42;100.00;101244.53;6229374;23;20020;-85
2021/12/21 06:29:37;;;;;;;75.93;39.95;;;;;;;2.45;100.00;101240.94;6249935;23;20069;-87
2021/12/21 06:32:04;;;;;;;79.28;39.85;;;;;;;2.45;100.00;101249.59;6223525;23;20020;-90
2021/12/21 06:34:29;;;;;;;74.35;37.17;;;;;;;2.47;100.00;101250.34;6248863;23;20039;-87
2021/12/21 06:36:55;;;;;;;72.25;35.90;;;;;;;2.68;100.00;101245.59;6249848;23;20008;-85
2021/12/21 06:39:21;;;;;;;68.35;36.00;;;;;;;2.66;100.00;101249.22;6250423;23;20439;-86
2021/12/21 06:41:50;;;;;;;69.85;35.30;;;;;;;2.81;100.00;101250.91;6227453;23;20000;-86
2021/12/21 06:44:19;;;;;;;71.85;35.42;;;;;;;2.90;100.00;101245.09;6253677;23;20032;-91
2021/12/21 06:46:54;;;;;;;72.10;35.40;;;;;;;2.86;100.00;101248.84;6223172;23;20082;-89
2021/12/21 06:52:05;;;;;;;70.90;35.90;;;;;;;2.91;100.00;101254.66;6248824;23;20023;-85
2021/12/21 06:54:30;;;;;;;76.63;38.47;;;;;;;2.96;100.00;101249.94;6220415;23;20051;-84
2021/12/21 06:56:59;;;;;;;86.25;40.78;;;;;;;2.90;100.00;101255.56;6247319;23;20015;-85
2021/12/21 06:59:25;;;;;;;89.93;41.88;;;;;;;2.84;100.00;101251.56;6220548;23;20054;-90
2021/12/21 07:01:51;;;;;;;82.00;40.13;;;;;;;2.82;100.00;101250.81;6247271;23;20335;-87
2021/12/21 07:04:20;;;;;;;78.85;39.22;;;;;;;2.91;100.00;101257.25;6248961;23;20008;-90
2021/12/21 07:06:48;;;;;;;81.30;40.13;;;;;;;2.92;100.00;101264.16;6226880;23;20023;-86
2021/12/21 07:09:33;;;;;;;86.55;39.15;;;;;;;2.81;100.00;101266.63;6256473;23;20079;-88
2021/12/21 07:20:19;;;;;;;77.15;38.05;;;;;;;2.63;100.00;101283.44;6214780;23;20107;-85
2021/12/21 07:22:44;;;;;;;79.53;36.38;;;;;;;2.76;100.00;101279.13;6194295;23;20012;-86
2021/12/21 07:25:12;;;;;;;77.32;36.80;;;;;;;2.71;100.00;101281.19;6247097;23;20284;-84
2021/12/21 07:27:38;;;;;;;77.75;37.10;;;;;;;2.76;100.00;101279.13;6246079;23;20023;-84
2021/12/21 07:30:05;;;;;;;73.28;37.28;;;;;;;2.80;100.00;101283.25;6244783;23;20008;-87
2021/12/21 07:32:31;;;;;;;76.95;37.47;;;;;;;2.82;100.00;101297.06;6249530;23;20012;-86
2021/12/21 07:34:57;;;;;;;80.95;39.45;;;;;;;2.68;100.00;101302.31;6255619;23;20093;-86
2021/12/21 07:37:25;;;;;;;88.20;38.53;;;;;;;2.69;100.00;101304.84;6247126;23;20016;-84
2021/12/21 07:39:51;;;;;;;83.38;37.83;;;;;;;2.73;100.00;101308.09;6247021;23;20012;-88
2021/12/21 07:42:19;;;;;;;76.40;37.65;;;;;;;2.62;100.00;101307.94;6256973;23;20019;-86
2021/12/21 07:44:45;;;;;;;79.38;37.35;;;;;;;2.70;100.00;101311.75;6249034;23;20384;-89
2021/12/21 07:47:10;;;;;;;82.47;40.03;;;;;;;2.66;100.00;101306.78;6245530;23;20012;-85
2021/12/21 07:49:36;;;;;;;79.45;38.75;;;;;;;2.73;100.00;101315.97;6245751;23;20011;-89
2021/12/21 07:52:03;;;;;;;83.15;39.25;;;;;;;2.72;100.00;101311.69;6245579;23;20016;-84
2021/12/21 07:54:28;;;;;;;83.35;38.35;;;;;;;2.71;100.00;101316.06;6244176;23;20012;-86
2021/12/21 07:56:54;;;;;;;86.05;38.55;;;;;;;2.69;100.00;101311.84;6245812;23;20327;-84
2021/12/21 07:59:23;;;;;;;81.97;38.72;;;;;;;2.63;100.00;101309.59;6245342;23;20006;-87
2021/12/21 08:01:52;;;;;;;87.03;38.25;;;;;;;2.65;100.00;101302.50;6244756;23;20088;-84
2021/12/21 08:04:21;;;;;;;81.97;38.75;;;;;;;2.66;100.00;101305.03;6244765;23;20009;-85
2021/12/21 08:06:48;;;;;;;96.68;40.78;;;;;;;2.77;100.00;101307.84;6240672;23;20012;-83
2021/12/21 08:09:14;;;;;;;79.78;40.28;;;;;;;2.79;100.00;101305.97;6243068;23;19996;-83
2021/12/21 08:14:06;;;;;;;96.78;40.33;;;;;;;2.99;100.00;101302.13;6243833;23;20012;-84
2021/12/21 08:16:34;;;;;;;86.35;38.47;;;;;;;3.20;100.00;101300.78;6244333;23;20027;-84
2021/12/21 08:19:00;;;;;;;86.63;39.33;;;;;;;3.13;100.00;101302.13;6244860;23;20066;-85
2021/12/21 08:21:26;;;;;;;97.53;40.72;;;;;;;3.11;100.00;101309.22;6218126;23;20019;-85
2021/12/21 08:23:52;;;;;;;88.43;38.53;;;;;;;3.21;100.00;101302.50;6243746;23;20374;-85
2021/12/21 08:26:18;;;;;;;93.82;40.65;;;;;;;3.21;100.00;101307.72;6241557;23;20012;-83
2021/12/21 08:28:44;;;;;;;100.95;42.30;;;;;;;3.20;100.00;101307.81;6244149;23;20016;-84
2021/12/21 08:31:13;;;;;;;101.97;43.92;;;;;;;3.23;100.00;101305.84;6243069;23;20004;-82
2021/12/21 08:33:40;;;;;;;112.82;41.38;;;;;;;3.39;100.00;101308.31;6215530;23;20061;-82
2021/12/21 08:36:07;;;;;;;106.72;43.83;;;;;;;3.30;100.00;101312.38;6244199;23;20431;-86
2021/12/21 08:38:36;;;;;;;100.55;42.55;;;;;;;3.29;100.00;101315.94;6246100;23;20402;-84
2021/12/21 08:41:02;;;;;;;105.40;44.00;;;;;;;3.42;100.00;101310.75;6244037;23;20453;-85
2021/12/21 08:43:29;;;;;;;100.80;43.42;;;;;;;3.47;100.00;101316.56;6245424;23;20083;-83
2021/12/21 08:45:56;;;;;;;99.88;43.88;;;;;;;3.48;100.00;101320.88;6245854;23;20000;-85
2021/12/21 08:48:23;;;;;;;102.88;44.10;;;;;;;3.50;100.00;101316.34;6245897;23;20016;-82
2021/12/21 08:50:56;;;;;;;97.82;43.25;;;;;;;3.57;100.00;101315.03;6244953;23;20008;-84
2021/12/21 08:53:23;;;;;;;106.28;45.13;;;;;;;3.59;100.00;101314.00;6244761;23;20008;-84
2021/12/21 08:55:51;;;;;;;105.53;43.05;;;;;;;3.59;100.00;101319.22;6217084;23;21125;-84
2021/12/21 08:58:18;;;;;;;97.82;40.60;;;;;;;3.63;100.00;101331.22;6218213;23;20019;-86
2021/12/21 09:00:44;;;;;;;102.40;42.15;;;;;;;3.77;100.00;101326.84;6244687;23;20431;-82
2021/12/21 09:03:11;;;;;;;97.72;41.70;;;;;;;3.78;100.00;101339.03;6245032;23;20043;-83
2021/12/21 09:05:37;;;;;;;106.18;42.75;;;;;;;3.82;100.00;101345.75;6245491;23;20015;-85
2021/12/21 09:08:04;;;;;;;97.20;42.47;;;;;;;3.97;100.00;101334.28;6218437;23;20076;-85
2021/12/21 09:10:30;;;;;;;105.75;44.80;;;;;;;4.02;100.00;101343.50;6245634;23;20008;-82
2021/12/21 09:12:58;;;;;;;114.60;46.05;;;;;;;4.15;100.00;101347.00;6245896;23;20008;-84
2021/12/21 09:15:26;;;;;;;96.10;41.67;;;;;;;4.16;100.00;101340.00;6245921;23;20009;-83
2021/12/21 09:17:52;;;;;;;100.57;43.63;;;;;;;4.11;100.00;101355.19;6245695;23;20451;-87
2021/12/21 09:20:21;;;;;;;101.45;44.00;;;;;;;4.05;100.00;101353.81;6246015;23;20014;-86
2021/12/21 09:22:48;;;;;;;100.43;43.83;;;;;;;4.03;100.00;101354.84;6194027;23;20382;-87
2021/12/21 09:25:14;;;;;;;104.47;44.28;;;;;;;4.16;100.00;101355.72;6245716;23;20011;-85
2021/12/21 09:27:40;;;;;;;104.63;47.00;;;;;;;4.21;100.00;101353.63;6246053;23;20040;-84
2021/12/21 09:30:10;;;;;;;119.40;50.42;;;;;;;4.40;100.00;101351.50;6246052;23;20023;-83
2021/12/21 09:32:36;;;;;;;96.95;44.45;;;;;;;4.69;100.00;101353.00;6219564;23;20012;-83
2021/12/21 09:35:02;;;;;;;94.43;41.78;;;;;;;4.81;100.00;101358.34;6219989;23;20443;-84
2021/12/21 09:37:27;;;;;;;95.25;42.67;;;;;;;4.57;100.00;101364.28;6245881;23;20427;-82
2021/12/21 09:39:56;;;;;;;89.63;42.03;;;;;;;4.39;100.00;101357.69;6245905;23;20020;-83
2021/12/21 09:42:24;;;;;;;100.45;42.80;;;;;;;4.36;100.00;101360.50;6246192;23;20410;-82
2021/12/21 09:44:51;;;;;;;93.85;42.78;;;;;;;4.37;100.00;101353.47;6246710;23;20008;-83
2021/12/21 09:47:17;;;;;;;98.10;44.05;;;;;;;4.29;100.00;101350.50;6246875;23;20083;-86
2021/12/21 09:49:44;;;;;;;97.13;43.05;;;;;;;4.32;100.00;101345.91;6194597;23;20004;-84
2021/12/21 09:52:12;;;;;;;100.22;44.53;;;;;;;4.21;100.00;101353.63;6245726;23;20096;-85
2021/12/21 09:54:38;;;;;;;99.47;43.58;;;;;;;4.18;100.00;101353.03;6256356;23;20056;-83
2021/12/21 09:57:05;;;;;;;95.68;44.42;;;;;;;4.18;100.00;101353.84;6232270;23;20059;-83
2021/12/21 09:59:31;;;;;;;91.30;42.38;;;;;;;4.31;100.00;101359.94;6247097;23;20019;-83
2021/12/21 10:01:57;;;;;;;94.90;42.88;;;;;;;4.26;100.00;101351.56;6247317;23;20010;-86
2021/12/21 10:04:24;;;;;;;99.55;44.60;;;;;;;4.29;100.00;101346.09;6246321;23;20008;-82
2021/12/21 10:06:52;;;;;;;95.68;43.38;;;;;;;4.25;100.00;101344.63;6248030;23;20008;-82
2021/12/21 10:09:19;;;;;;;96.40;44.13;;;;;;;4.29;100.00;101340.84;6262859;23;20440;-80
2021/12/21 10:11:50;;;;;;;100.28;46.50;;;;;;;4.35;100.00;101344.84;6265355;23;20016;-84
2021/12/21 10:14:19;;;;;;;99.28;43.45;;;;;;;4.35;100.00;101348.31;6265402;23;20008;-82
2021/12/21 10:16:45;;;;;;;100.53;44.80;;;;;;;4.29;100.00;101340.84;6259285;23;20084;-84
2021/12/21 10:19:21;;;;;;;100.45;43.30;;;;;;;4.35;100.00;101347.47;6249781;23;20027;-81
2021/12/21 10:21:47;;;;;;;87.22;41.28;;;;;;;4.53;100.00;101335.75;6248518;23;20016;-81
2021/12/21 10:24:27;;;;;;;93.18;42.10;;;;;;;4.51;100.00;101335.84;6221102;23;20016;-85
2021/12/21 10:27:06;;;;;;;93.93;41.83;;;;;;;4.66;100.00;101339.22;6247974;23;20009;-83
2021/12/21 10:29:47;;;;;;;102.10;44.17;;;;;;;4.63;100.00;101328.94;6247629;23;20008;-84
2021/12/21 10:32:21;;;;;;;94.68;42.58;;;;;;;4.59;100.00;101317.81;6222466;23;20008;-81
2021/12/21 10:34:55;;;;;;;91.60;42.70;;;;;;;4.78;100.00;101320.00;6249018;23;20020;-84
2021/12/21 10:37:40;;;;;;;88.38;41.53;;;;;;;5.00;100.00;101316.75;6221425;23;20017;-87
2021/12/21 10:40:17;;;;;;;97.00;43.85;;;;;;;4.97;100.00;101312.53;6247693;23;20044;-86
2021/12/21 10:42:49;;;;;;;100.78;44.08;;;;;;;4.97;100.00;101311.72;6247057;23;20004;-84
2021/12/21 10:45:16;;;;;;;89.65;43.70;;;;;;;4.95;100.00;101326.72;6247796;23;20027;-83
2021/12/21 10:47:46;;;;;;;89.88;41.22;;;;;;;5.15;100.00;101313.88;6220646;23;20008;-84
2021/12/21 10:50:14;;;;;;;95.55;42.97;;;;;;;5.29;100.00;101312.91;6220034;23;20008;-86
2021/12/21 10:52:41;;;;;;;100.20;43.67;;;;;;;5.16;100.00;101307.69;6220995;23;20317;-85
2021/12/21 10:55:07;;;;;;;90.80;41.60;;;;;;;5.42;100.00;101313.69;6247764;23;20015;-83
2021/12/21 10:57:33;;;;;;;91.78;42.22;;;;;;;5.52;100.00;101314.72;6249990;23;20008;-86
2021/12/21 11:00:05;;;;;;;92.20;41.45;;;;;;;5.76;100.00;101306.84;6222517;23;20012;-88
2021/12/21 11:02:34;;;;;;;106.97;42.28;;;;;;;5.72;100.00;101300.97;6248757;23;20022;-85
2021/12/21 11:05:09;;;;;;;101.38;40.63;;;;;;;5.79;100.00;101305.78;6222727;23;20056;-86
2021/12/21 11:07:54;;;;;;;101.78;42.80;;;;;;;5.84;100.00;101304.47;6198222;23;20019;-89
2021/12/21 11:10:41;;;;;;;94.10;40.97;;;;;;;5.81;100.00;101303.88;6199268;23;20089;-86
2021/12/21 11:13:13;;;;;;;87.10;39.40;;;;;;;5.80;100.00;101297.75;6252307;23;20040;-88
2021/12/21 11:15:52;;;;;;;94.03;41.00;;;;;;;5.86;100.00;101300.00;6254755;23;20013;-87
2021/12/21 11:18:20;;;;;;;98.85;43.33;;;;;;;5.63;100.00;101290.28;6259772;23;20008;-85
2021/12/21 11:20:49;;;;;;;92.57;42.88;;;;;;;5.37;100.00;101289.53;6251134;23;20012;-92
2021/12/21 11:23:17;;;;;;;103.22;45.47;;;;;;;5.31;100.00;101283.88;6248385;23;20012;-89
2021/12/21 11:25:46;;;;;;;100.38;44.97;;;;;;;5.30;100.00;101284.84;6248250;23;20422;-85
2021/12/21 11:28:15;;;;;;;111.45;45.17;;;;;;;5.28;100.00;101284.09;6248163;23;20012;-89
2021/12/21 11:30:41;;;;;;;112.22;44.25;;;;;;;5.48;100.00;101279.09;6257048;23;20005;-86
2021/12/21 11:33:07;;;;;;;97.78;43.70;;;;;;;5.45;100.00;101271.41;6225643;23;20012;-86
2021/12/21 11:38:07;;;;;;;97.38;43.78;;;;;;;6.05;100.00;101286.31;6252476;23;20390;-85
2021/12/21 11:40:38;;;;;;;97.38;43.13;;;;;;;6.04;100.00;101276.72;6222987;23;20044;-89
2021/12/21 11:43:21;;;;;;;99.80;45.90;;;;;;;5.84;100.00;101272.06;6247407;23;20005;-85
2021/12/21 11:46:04;;;;;;;99.60;44.20;;;;;;;5.80;100.00;101270.66;6247739;23;20012;-88
2021/12/21 11:48:37;;;;;;;101.40;43.58;;;;;;;5.99;100.00;101271.84;6247290;23;20019;-87
2021/12/21 11:51:09;;;;;;;;;;;;;;;5.85;100.00;101258.81;6249590;23;20005;-89
2021/12/21 11:53:36;;;;;;;104.00;43.92;;;;;;;5.71;100.00;101257.22;6252805;23;19911;-90
2021/12/21 11:56:05;;;;;;;97.25;45.00;;;;;;;5.71;100.00;101265.09;6203573;23;20011;-90
2021/12/21 11:58:39;;;;;;;97.68;44.25;;;;;;;5.77;100.00;101255.09;6223859;23;20016;-87
2021/12/21 12:01:14;;;;;;;96.63;44.25;;;;;;;5.68;100.00;101252.19;6225424;23;20012;-86
2021/12/21 12:03:46;;;;;;;95.05;43.85;;;;;;;5.55;100.00;101243.50;6223159;23;20382;-86
2021/12/21 12:06:15;;;;;;;96.25;44.80;;;;;;;5.54;100.00;101239.19;6247231;23;20083;-86
2021/12/21 12:08:59;;;;;;;91.75;44.90;;;;;;;5.61;100.00;101243.06;6220650;23;20020;-84
2021/12/21 12:11:39;;;;;;;88.43;44.88;;;;;;;5.72;100.00;101232.59;6248503;23;20012;-87
2021/12/21 12:14:14;;;;;;;91.13;45.80;;;;;;;5.66;100.00;101233.06;6221631;23;20064;-90
2021/12/21 12:16:44;;;;;;;94.15;44.15;;;;;;;5.65;100.00;101243.69;6249117;23;20109;-89
2021/12/21 12:19:16;;;;;;;95.22;44.35;;;;;;;5.80;100.00;101244.34;6247036;23;20028;-90
2021/12/21 12:21:53;;;;;;;99.50;45.22;;;;;;;5.98;100.00;101235.94;6196184;23;20020;-87
2021/12/21 12:24:20;;;;;;;90.13;43.70;;;;;;;6.22;100.00;101233.25;6225943;23;20012;-87
2021/12/21 12:27:11;;;;;;;93.10;44.00;;;;;;;6.48;100.00;101224.19;6247626;23;20008;-88
2021/12/21 12:29:49;;;;;;;94.80;45.08;;;;;;;6.12;100.00;101221.75;6220311;23;20031;-88
2021/12/21 12:32:17;;;;;;;93.90;44.63;;;;;;;6.03;100.00;101222.44;6220666;23;20030;-84
2021/12/21 12:34:44;;;;;;;94.53;42.50;;;;;;;6.04;100.00;101224.94;6246743;23;20091;-88